createdAt,value
2019-04-25T00:00:58.714Z,99274.55
2019-04-25T00:03:27.030Z,99279.55
2019-04-25T00:05:53.201Z,99282.17
2019-04-25T00:08:21.421Z,99280.47
2019-04-25T00:10:48.447Z,99281.27
2019-04-25T00:13:15.142Z,99283.44
2019-04-25T00:15:41.946Z,99288.45
2019-04-25T00:18:09.415Z,99297.27
2019-04-25T00:20:38.815Z,99296.92
2019-04-25T00:23:18.205Z,99291.87
2019-04-25T00:26:04.501Z,99283.60
2019-04-25T00:28:31.632Z,99279.44
2019-04-25T00:30:58.069Z,99279.43
2019-04-25T00:33:24.574Z,99271.80
2019-04-25T00:35:51.716Z,99275.49
2019-04-25T00:38:18.848Z,99280.14
2019-04-25T00:40:45.889Z,99284.92
2019-04-25T00:43:12.123Z,99291.87
2019-04-25T00:45:38.671Z,99302.95
2019-04-25T00:48:04.804Z,99306.46
2019-04-25T00:50:31.936Z,99299.59
2019-04-25T00:52:58.186Z,99292.94
2019-04-25T00:55:28.676Z,99298.33
2019-04-25T00:57:54.612Z,99304.50
2019-04-25T01:00:28.639Z,99299.08
2019-04-25T01:02:56.678Z,99299.36
2019-04-25T01:05:23.038Z,99310.16
2019-04-25T01:07:49.828Z,99318.28
2019-04-25T01:10:16.553Z,99316.38
2019-04-25T01:12:42.729Z,99323.24
2019-04-25T01:15:11.583Z,99320.69
2019-04-25T01:17:37.788Z,99322.58
2019-04-25T01:20:07.705Z,99319.52
2019-04-25T01:22:34.328Z,99321.13
2019-04-25T01:25:00.577Z,99341.14
2019-04-25T01:27:27.381Z,99337.55
2019-04-25T01:29:54.445Z,99340.16
2019-04-25T01:32:23.782Z,99338.09
2019-04-25T01:34:54.657Z,99338.39
2019-04-25T01:37:27.890Z,99344.13
2019-04-25T01:40:13.999Z,99358.74
2019-04-25T01:42:44.842Z,99355.94
2019-04-25T01:45:11.374Z,99355.41
2019-04-25T01:47:37.513Z,99358.97
2019-04-25T01:50:06.035Z,99352.86
2019-04-25T01:52:33.442Z,99354.45
2019-04-25T01:54:59.811Z,99367.73
2019-04-25T01:57:25.977Z,99364.16
2019-04-25T01:59:54.112Z,99368.41
2019-04-25T02:02:23.583Z,99367.70
2019-04-25T02:04:51.296Z,99379.80
2019-04-25T02:07:17.820Z,99396.75
2019-04-25T02:09:44.034Z,99391.86
2019-04-25T02:12:15.609Z,99396.77
2019-04-25T02:14:43.484Z,99400.91
2019-04-25T02:17:10.009Z,99401.51
2019-04-25T02:19:36.190Z,99404.77
2019-04-25T02:22:04.022Z,99403.82
2019-04-25T02:24:30.367Z,99407.42
2019-04-25T02:26:57.258Z,99420.83
2019-04-25T02:29:23.574Z,99422.93
2019-04-25T02:31:49.855Z,99422.19
2019-04-25T02:34:18.165Z,99424.95
2019-04-25T02:36:47.054Z,99420.54
2019-04-25T02:39:17.335Z,99421.14
2019-04-25T02:41:44.523Z,99422.51
2019-04-25T02:44:10.816Z,99421.24
2019-04-25T02:46:59.129Z,99424.31
2019-04-25T02:49:38.265Z,99424.80
2019-04-25T02:52:08.588Z,99434.22
2019-04-25T02:54:34.889Z,99439.61
2019-04-25T02:57:02.048Z,99437.68
2019-04-25T02:59:28.481Z,99435.59
2019-04-25T03:01:54.763Z,99438.14
2019-04-25T03:04:20.907Z,99429.37
2019-04-25T03:06:47.129Z,99432.58
2019-04-25T03:09:15.359Z,99423.62
2019-04-25T03:11:41.687Z,99431.45
2019-04-25T03:14:09.912Z,99428.69
2019-04-25T03:16:42.013Z,99427.83
2019-04-25T03:19:26.378Z,99434.66
2019-04-25T03:21:58.635Z,99434.58
2019-04-25T03:24:25.932Z,99436.40
2019-04-25T03:26:53.210Z,99439.92
2019-04-25T03:29:19.471Z,99448.08
2019-04-25T03:31:45.677Z,99451.23
2019-04-25T03:34:16.054Z,99458.40
2019-04-25T03:36:40.215Z,99451.92
2019-04-25T03:39:06.682Z,99456.59
2019-04-25T03:41:34.079Z,99458.45
2019-04-25T03:44:01.640Z,99459.61
2019-04-25T03:46:29.045Z,99459.97
2019-04-25T03:48:55.259Z,99465.48
2019-04-25T03:51:21.411Z,99467.67
2019-04-25T03:53:47.620Z,99469.52
2019-04-25T03:56:14.663Z,99473.98
2019-04-25T03:58:41.261Z,99471.36
2019-04-25T04:01:08.650Z,99474.04
2019-04-25T04:03:35.666Z,99477.69
2019-04-25T04:06:01.821Z,99477.23
2019-04-25T04:08:28.156Z,99479.58
2019-04-25T04:10:54.453Z,99482.05
2019-04-25T04:13:20.999Z,99486.88
2019-04-25T04:15:47.143Z,99484.91
2019-04-25T04:18:17.268Z,99489.06
2019-04-25T04:21:03.178Z,99493.04
2019-04-25T04:23:37.689Z,99490.25
2019-04-25T04:26:04.122Z,99488.92
2019-04-25T04:28:30.334Z,99489.58
2019-04-25T04:30:56.462Z,99490.90
2019-04-25T04:33:30.222Z,99491.20
2019-04-25T04:35:50.781Z,99495.16
2019-04-25T04:38:16.999Z,99497.50
2019-04-25T04:40:44.186Z,99506.25
2019-04-25T04:43:18.438Z,99511.58
2019-04-25T04:45:45.674Z,99514.39
2019-04-25T04:48:14.137Z,99514.73
2019-04-25T04:50:40.299Z,99509.73
2019-04-25T04:53:06.530Z,99515.52
2019-04-25T04:55:34.343Z,99519.01
2019-04-25T04:58:01.466Z,99516.00
2019-04-25T05:00:29.097Z,99510.81
2019-04-25T05:03:04.378Z,99513.77
2019-04-25T05:05:41.920Z,99520.55
2019-04-25T05:08:16.444Z,99525.98
2019-04-25T05:10:43.814Z,99528.62
2019-04-25T05:13:10.025Z,99533.67
2019-04-25T05:15:36.241Z,99534.77
2019-04-25T05:18:04.025Z,99549.45
2019-04-25T05:20:30.805Z,99545.98
2019-04-25T05:22:56.957Z,99546.67
2019-04-25T05:25:24.585Z,99553.03
2019-04-25T05:28:02.127Z,99557.02
2019-04-25T05:30:26.442Z,99553.97
2019-04-25T05:32:51.849Z,99554.55
2019-04-25T05:35:18.061Z,99557.91
2019-04-25T05:37:44.203Z,99561.36
2019-04-25T05:40:10.613Z,99561.20
2019-04-25T05:42:55.271Z,99571.23
2019-04-25T05:45:26.369Z,99575.55
2019-04-25T05:47:54.009Z,99579.80
2019-04-25T05:50:20.811Z,99579.60
2019-04-25T05:52:46.977Z,99582.02
2019-04-25T05:55:14.284Z,99587.58
2019-04-25T05:57:47.354Z,99591.05
2019-04-25T06:00:15.146Z,99578.67
2019-04-25T06:02:41.442Z,99585.21
2019-04-25T06:05:08.406Z,99583.64
2019-04-25T06:07:43.243Z,99596.53
2019-04-25T06:10:15.015Z,99599.69
2019-04-25T06:12:45.954Z,99594.25
2019-04-25T06:15:13.231Z,99592.49
2019-04-25T06:17:41.413Z,99595.69
2019-04-25T06:20:10.637Z,99605.64
2019-04-25T06:22:55.219Z,99605.19
2019-04-25T06:25:27.139Z,99601.15
2019-04-25T06:27:57.219Z,99603.66
2019-04-25T06:30:27.089Z,99606.98
2019-04-25T06:32:53.565Z,99608.52
2019-04-25T06:35:21.026Z,99610.77
2019-04-25T06:37:47.481Z,99617.05
2019-04-25T06:40:16.035Z,99615.35
2019-04-25T06:42:43.541Z,99624.38
2019-04-25T06:45:25.217Z,99619.36
2019-04-25T06:48:03.954Z,99625.31
2019-04-25T06:50:30.388Z,99629.67
2019-04-25T06:52:56.534Z,99631.92
2019-04-25T06:55:23.662Z,99633.94
2019-04-25T06:57:50.803Z,99632.56
2019-04-25T07:00:17.655Z,99636.36
2019-04-25T07:02:43.864Z,99637.36
2019-04-25T07:05:11.017Z,99633.75
2019-04-25T07:07:37.564Z,99634.91
2019-04-25T07:10:06.950Z,99625.39
2019-04-25T07:12:34.788Z,99624.29
2019-04-25T07:15:03.925Z,99631.48
2019-04-25T07:17:30.582Z,99627.19
2019-04-25T07:19:56.902Z,99628.05
2019-04-25T07:22:23.905Z,99631.64
2019-04-25T07:24:51.205Z,99631.23
2019-04-25T07:27:36.478Z,99635.02
2019-04-25T07:30:27.155Z,99642.98
2019-04-25T07:33:04.085Z,99657.90
2019-04-25T07:35:31.177Z,99652.01
2019-04-25T07:37:57.450Z,99655.52
2019-04-25T07:40:25.654Z,99658.20
2019-04-25T07:42:53.580Z,99653.86
2019-04-25T07:45:20.135Z,99656.67
2019-04-25T07:47:46.408Z,99657.52
2019-04-25T07:50:15.093Z,99658.89
2019-04-25T07:52:41.324Z,99667.06
2019-04-25T07:55:07.856Z,99670.73
2019-04-25T07:57:34.884Z,99665.81
2019-04-25T08:00:10.673Z,99665.81
2019-04-25T08:02:37.540Z,99669.66
2019-04-25T08:05:06.628Z,99668.47
2019-04-25T08:07:33.947Z,99675.78
2019-04-25T08:10:00.881Z,99672.03
2019-04-25T08:12:28.238Z,99672.95
2019-04-25T08:14:56.454Z,99672.23
2019-04-25T08:17:41.743Z,99671.72
2019-04-25T08:20:09.393Z,99668.17
2019-04-25T08:22:50.162Z,99675.29
2019-04-25T08:25:06.961Z,99671.73
2019-04-25T08:27:34.390Z,99671.82
2019-04-25T08:30:01.882Z,99668.45
2019-04-25T08:32:28.132Z,99661.88
2019-04-25T08:34:54.349Z,99658.54
2019-04-25T08:37:21.226Z,99654.95
2019-04-25T08:39:47.510Z,99656.06
2019-04-25T08:42:14.783Z,99656.34
2019-04-25T08:44:41.378Z,99658.36
2019-04-25T08:47:07.539Z,99651.16
2019-04-25T08:49:45.928Z,99652.77
2019-04-25T08:52:13.234Z,99649.30
2019-04-25T08:54:50.264Z,99651.70
2019-04-25T08:57:18.293Z,99649.33
2019-04-25T08:59:52.479Z,99651.45
2019-04-25T09:02:23.497Z,99656.25
2019-04-25T09:04:57.563Z,99653.17
2019-04-25T09:07:23.710Z,99656.77
2019-04-25T09:09:49.924Z,99650.72
2019-04-25T09:12:16.094Z,99646.70
2019-04-25T09:14:44.736Z,99645.63
2019-04-25T09:17:10.721Z,99646.41
2019-04-25T09:19:37.558Z,99642.05
2019-04-25T09:22:04.663Z,99645.18
2019-04-25T09:24:30.888Z,99643.81
2019-04-25T09:26:57.304Z,99649.92
2019-04-25T09:29:23.938Z,99649.66
2019-04-25T09:31:50.099Z,99642.83
2019-04-25T09:34:16.305Z,99644.59
2019-04-25T09:36:43.936Z,99640.83
2019-04-25T09:39:13.579Z,99636.72
2019-04-25T09:41:39.922Z,99630.61
2019-04-25T09:44:08.014Z,99628.50
2019-04-25T09:46:37.216Z,99627.65
2019-04-25T09:49:11.211Z,99627.14
2019-04-25T09:51:42.813Z,99629.78
2019-04-25T09:54:29.391Z,99627.06
2019-04-25T09:57:00.355Z,99622.88
2019-04-25T09:59:29.325Z,99620.52
2019-04-25T10:01:54.791Z,99613.67
2019-04-25T10:04:22.944Z,99619.06
2019-04-25T10:06:49.451Z,99615.75
2019-04-25T10:09:15.811Z,99619.25
2019-04-25T10:11:43.994Z,99608.87
2019-04-25T10:14:25.141Z,99612.69
2019-04-25T10:16:52.444Z,99598.38
2019-04-25T10:19:19.438Z,99596.48
2019-04-25T10:21:45.749Z,99590.22
2019-04-25T10:24:13.543Z,99590.05
2019-04-25T10:26:39.929Z,99587.95
2019-04-25T10:29:06.067Z,99591.91
2019-04-25T10:31:33.802Z,99578.14
2019-04-25T10:34:00.047Z,99571.12
2019-04-25T10:36:33.522Z,99569.43
2019-04-25T10:39:07.660Z,99562.95
2019-04-25T10:41:28.021Z,99554.53
2019-04-25T10:43:56.120Z,99556.98
2019-04-25T10:46:24.321Z,99561.47
2019-04-25T10:48:50.606Z,99554.48
2019-04-25T10:51:16.925Z,99554.45
2019-04-25T10:53:45.402Z,99554.22
2019-04-25T10:56:11.296Z,99548.12
2019-04-25T10:58:37.505Z,99541.13
2019-04-25T11:01:04.002Z,99547.30
2019-04-25T11:03:33.738Z,99546.02
2019-04-25T11:06:00.421Z,99538.95
2019-04-25T11:08:26.552Z,99538.05
2019-04-25T11:10:54.904Z,99544.67
2019-04-25T11:13:21.371Z,99541.58
2019-04-25T11:15:47.721Z,99543.59
2019-04-25T11:18:15.221Z,99541.30
2019-04-25T11:20:43.091Z,99540.93
2019-04-25T11:23:10.878Z,99544.02
2019-04-25T11:25:37.016Z,99539.00
2019-04-25T11:28:05.945Z,99535.06
2019-04-25T11:30:32.500Z,99542.81
2019-04-25T11:32:59.125Z,99542.98
2019-04-25T11:35:25.353Z,99539.94
2019-04-25T11:37:53.463Z,99536.22
2019-04-25T11:40:38.376Z,99532.44
2019-04-25T11:43:05.081Z,99527.83
2019-04-25T11:45:34.314Z,99527.05
2019-04-25T11:48:01.937Z,99529.48
2019-04-25T11:50:29.049Z,99523.56
2019-04-25T11:52:56.181Z,99517.77
2019-04-25T11:55:23.899Z,99519.52
2019-04-25T11:57:51.387Z,99517.43
2019-04-25T12:00:22.234Z,99518.91
2019-04-25T12:02:49.688Z,99519.30
2019-04-25T12:05:15.940Z,99517.07
2019-04-25T12:07:44.410Z,99512.83
2019-04-25T12:10:11.744Z,99509.07
2019-04-25T12:12:38.022Z,99503.39
2019-04-25T12:15:07.753Z,99497.70
2019-04-25T12:17:35.262Z,99492.39
2019-04-25T12:20:01.526Z,99487.72
2019-04-25T12:22:27.733Z,99482.30
2019-04-25T12:24:54.723Z,99481.03
2019-04-25T12:27:21.989Z,99482.06
2019-04-25T12:29:48.129Z,99480.78
2019-04-25T12:32:14.345Z,99478.08
2019-04-25T12:34:40.746Z,99478.10
2019-04-25T12:37:06.891Z,99472.76
2019-04-25T12:39:34.169Z,99471.19
2019-04-25T12:42:00.694Z,99474.34
2019-04-25T12:44:28.827Z,99469.89
2019-04-25T12:46:56.938Z,99467.86
2019-04-25T12:49:24.181Z,99461.27
2019-04-25T12:51:50.478Z,99461.80
2019-04-25T12:54:16.700Z,99456.12
2019-04-25T12:56:43.292Z,99454.41
2019-04-25T12:59:09.933Z,99444.36
2019-04-25T13:01:36.089Z,99444.81
2019-04-25T13:04:04.175Z,99443.45
2019-04-25T13:06:31.434Z,99441.90
2019-04-25T13:08:57.642Z,99440.44
2019-04-25T13:11:24.030Z,99437.62
2019-04-25T13:13:50.519Z,99433.27
2019-04-25T13:16:16.797Z,99432.05
2019-04-25T13:18:42.990Z,99427.34
2019-04-25T13:21:09.135Z,99423.02
2019-04-25T13:23:35.685Z,99417.71
2019-04-25T13:26:01.937Z,99421.91
2019-04-25T13:28:34.147Z,99413.95
2019-04-25T13:31:12.384Z,99408.84
2019-04-25T13:33:54.804Z,99407.14
2019-04-25T13:36:22.654Z,99402.58
2019-04-25T13:38:48.873Z,99404.89
2019-04-25T13:41:15.216Z,99399.45
2019-04-25T13:43:44.277Z,99397.22
2019-04-25T13:46:11.130Z,99392.83
2019-04-25T13:48:38.560Z,99388.33
2019-04-25T13:51:04.831Z,99384.49
2019-04-25T13:53:31.632Z,99384.66
2019-04-25T13:55:59.251Z,99381.98
2019-04-25T13:58:26.633Z,99376.14
2019-04-25T14:00:52.996Z,99369.73
2019-04-25T14:03:20.659Z,99369.59
2019-04-25T14:05:47.829Z,99369.06
2019-04-25T14:08:14.928Z,99367.03
2019-04-25T14:10:41.216Z,99364.08
2019-04-25T14:13:07.620Z,99361.48
2019-04-25T14:15:37.161Z,99353.20
2019-04-25T14:18:08.300Z,99358.34
2019-04-25T14:20:36.442Z,99352.55
2019-04-25T14:23:03.649Z,99348.27
2019-04-25T14:25:30.037Z,99354.17
2019-04-25T14:27:56.177Z,99347.06
2019-04-25T14:30:25.242Z,99358.05
2019-04-25T14:32:53.643Z,99355.55
2019-04-25T14:35:19.918Z,99350.89
2019-04-25T14:37:46.065Z,99347.15
2019-04-25T14:40:13.899Z,99341.72
2019-04-25T14:42:40.213Z,99337.06
2019-04-25T14:45:09.193Z,99336.16
2019-04-25T14:47:35.407Z,99339.27
2019-04-25T14:50:02.567Z,99333.59
2019-04-25T14:52:28.698Z,99325.34
2019-04-25T14:55:03.017Z,99314.68
2019-04-25T14:57:31.598Z,99318.63
2019-04-25T15:00:01.210Z,99319.66
2019-04-25T15:02:28.192Z,99322.66
2019-04-25T15:04:54.419Z,99316.42
2019-04-25T15:07:20.545Z,99313.41
2019-04-25T15:09:47.070Z,99313.03
2019-04-25T15:12:13.675Z,99309.75
2019-04-25T15:14:39.939Z,99306.40
2019-04-25T15:17:06.433Z,99300.87
2019-04-25T15:19:32.648Z,99306.22
2019-04-25T15:21:59.195Z,99307.49
2019-04-25T15:24:25.315Z,99304.36
2019-04-25T15:26:51.755Z,99300.95
2019-04-25T15:29:17.912Z,99282.78
2019-04-25T15:31:55.372Z,99289.78
2019-04-25T15:34:12.178Z,99296.28
2019-04-25T15:36:46.119Z,99298.66
2019-04-25T15:39:26.232Z,99290.34
2019-04-25T15:41:57.437Z,99288.17
2019-04-25T15:44:26.638Z,99289.19
2019-04-25T15:46:54.813Z,99295.30
2019-04-25T15:49:20.986Z,99294.40
2019-04-25T15:51:47.188Z,99294.90
2019-04-25T15:54:13.321Z,99296.55
2019-04-25T15:56:39.668Z,99298.84
2019-04-25T15:59:05.893Z,99293.41
2019-04-25T16:01:32.441Z,99293.05
2019-04-25T16:04:01.730Z,99290.79
2019-04-25T16:06:28.247Z,99291.22
2019-04-25T16:08:54.409Z,99289.55
2019-04-25T16:11:20.604Z,99288.98
2019-04-25T16:13:46.842Z,99291.99
2019-04-25T16:16:13.149Z,99292.40
2019-04-25T16:18:39.288Z,99291.16
2019-04-25T16:21:05.521Z,99290.63
2019-04-25T16:23:32.172Z,99290.86
2019-04-25T16:25:58.539Z,99287.95
2019-04-25T16:28:24.669Z,99292.37
2019-04-25T16:30:50.893Z,99289.03
2019-04-25T16:33:17.153Z,99287.39
2019-04-25T16:35:43.296Z,99288.24
2019-04-25T16:38:10.135Z,99286.22
2019-04-25T16:40:36.358Z,99286.86
2019-04-25T16:43:05.109Z,99288.35
2019-04-25T16:45:31.900Z,99290.47
2019-04-25T16:47:58.245Z,99291.95
2019-04-25T16:50:25.089Z,99289.42
2019-04-25T16:52:51.301Z,99292.75
2019-04-25T16:55:17.958Z,99292.72
2019-04-25T16:57:44.341Z,99292.19
2019-04-25T17:00:21.846Z,99295.29
2019-04-25T17:02:48.057Z,99291.86
2019-04-25T17:05:15.009Z,99291.87
2019-04-25T17:07:41.247Z,99291.75
2019-04-25T17:10:07.709Z,99291.50
2019-04-25T17:12:34.339Z,99290.13
2019-04-25T17:15:19.226Z,99299.31
2019-04-25T17:17:53.324Z,99298.44
2019-04-25T17:20:24.301Z,99290.63
2019-04-25T17:22:50.531Z,99293.70
2019-04-25T17:25:16.988Z,99292.34
2019-04-25T17:27:43.495Z,99293.63
2019-04-25T17:30:10.787Z,99290.38
2019-04-25T17:32:50.299Z,99287.94
2019-04-25T17:35:18.653Z,99283.63
2019-04-25T17:37:46.785Z,99288.22
2019-04-25T17:40:15.071Z,99290.05
2019-04-25T17:42:41.429Z,99295.89
2019-04-25T17:45:09.795Z,99293.80
2019-04-25T17:47:36.552Z,99293.84
2019-04-25T17:50:05.621Z,99284.34
2019-04-25T17:52:32.634Z,99287.80
2019-04-25T17:54:58.988Z,99284.97
2019-04-25T17:57:25.191Z,99284.78
2019-04-25T17:59:51.505Z,99282.97
2019-04-25T18:02:17.631Z,99284.04
2019-04-25T18:04:44.637Z,99286.13
2019-04-25T18:07:10.821Z,99288.27
2019-04-25T18:09:37.149Z,99286.08
2019-04-25T18:12:03.804Z,99280.09
2019-04-25T18:14:31.213Z,99286.33
2019-04-25T18:16:57.518Z,99283.06
2019-04-25T18:19:28.359Z,99285.77
2019-04-25T18:21:56.423Z,99285.55
2019-04-25T18:24:41.537Z,99287.71
2019-04-25T18:27:09.944Z,99287.27
2019-04-25T18:29:37.355Z,99283.89
2019-04-25T18:32:04.240Z,99287.75
2019-04-25T18:34:42.269Z,99289.34
2019-04-25T18:37:13.434Z,99284.41
2019-04-25T18:39:59.372Z,99288.47
2019-04-25T18:42:39.952Z,99288.23
2019-04-25T18:45:07.799Z,99288.46
2019-04-25T18:47:33.958Z,99287.95
2019-04-25T18:50:00.540Z,99290.89
2019-04-25T18:52:43.654Z,99289.86
2019-04-25T18:55:29.245Z,99292.83
2019-04-25T18:58:00.681Z,99295.14
2019-04-25T19:00:45.834Z,99296.41
2019-04-25T19:03:31.307Z,99289.48
2019-04-25T19:05:59.469Z,99291.07
2019-04-25T19:08:25.628Z,99288.72
2019-04-25T19:10:51.929Z,99290.89
2019-04-25T19:13:18.131Z,99288.16
2019-04-25T19:15:45.120Z,99288.64
2019-04-25T19:18:11.437Z,99287.72
2019-04-25T19:20:37.890Z,99295.25
2019-04-25T19:23:04.203Z,99295.41
2019-04-25T19:25:30.477Z,99295.77
2019-04-25T19:27:56.645Z,99294.44
2019-04-25T19:30:22.999Z,99291.87
2019-04-25T19:32:49.183Z,99286.80
2019-04-25T19:35:15.401Z,99297.60
2019-04-25T19:37:41.950Z,99289.16
2019-04-25T19:40:16.795Z,99288.10
2019-04-25T19:42:57.111Z,99280.33
2019-04-25T19:45:23.682Z,99278.43
2019-04-25T19:47:49.860Z,99282.96
2019-04-25T19:50:15.982Z,99279.03
2019-04-25T19:52:42.834Z,99285.75
2019-04-25T19:55:10.125Z,99285.08
2019-04-25T19:57:36.339Z,99284.44
2019-04-25T20:00:05.052Z,99286.20
2019-04-25T20:02:45.229Z,99281.34
2019-04-25T20:05:22.508Z,99284.20
2019-04-25T20:07:51.294Z,99280.84
2019-04-25T20:10:25.287Z,99283.05
2019-04-25T20:12:53.427Z,99282.73
2019-04-25T20:15:19.652Z,99281.91
2019-04-25T20:17:46.020Z,99287.48
2019-04-25T20:20:12.606Z,99285.22
2019-04-25T20:22:39.730Z,99278.72
2019-04-25T20:25:06.955Z,99281.00
2019-04-25T20:27:33.172Z,99277.39
2019-04-25T20:29:59.316Z,99276.16
2019-04-25T20:32:25.544Z,99275.91
2019-04-25T20:34:51.716Z,99268.73
2019-04-25T20:37:18.132Z,99281.09
2019-04-25T20:39:45.892Z,99280.57
2019-04-25T20:42:12.235Z,99280.34
2019-04-25T20:44:38.373Z,99278.98
2019-04-25T20:47:04.628Z,99276.25
2019-04-25T20:49:30.893Z,99277.91
2019-04-25T20:51:57.025Z,99275.34
2019-04-25T20:54:23.486Z,99271.14
2019-04-25T20:56:50.897Z,99273.53
2019-04-25T20:59:17.539Z,99270.43
2019-04-25T21:01:43.680Z,99274.69
2019-04-25T21:04:13.218Z,99276.77
2019-04-25T21:06:40.475Z,99268.56
2019-04-25T21:09:07.245Z,99267.78
2019-04-25T21:11:33.422Z,99272.96
2019-04-25T21:14:01.589Z,99265.31
2019-04-25T21:16:42.068Z,99268.67
2019-04-25T21:19:10.194Z,99269.61
2019-04-25T21:21:36.355Z,99270.95
2019-04-25T21:24:02.722Z,99270.61
2019-04-25T21:26:28.867Z,99271.14
2019-04-25T21:28:55.097Z,99265.56
2019-04-25T21:31:21.256Z,99272.08
2019-04-25T21:33:47.569Z,99269.72
2019-04-25T21:36:14.029Z,99274.73
2019-04-25T21:38:40.673Z,99275.55
2019-04-25T21:41:17.868Z,99273.36
2019-04-25T21:43:46.190Z,99275.20
2019-04-25T21:46:12.632Z,99270.37
2019-04-25T21:48:39.253Z,99269.38
2019-04-25T21:51:23.930Z,99268.16
2019-04-25T21:53:50.160Z,99266.71
2019-04-25T21:56:16.607Z,99266.88
2019-04-25T21:58:42.860Z,99263.14
2019-04-25T22:01:11.144Z,99261.63
2019-04-25T22:03:37.357Z,99263.09
2019-04-25T22:06:05.125Z,99261.89
2019-04-25T22:08:31.421Z,99262.51
2019-04-25T22:10:59.120Z,99264.80
2019-04-25T22:13:25.540Z,99262.36
2019-04-25T22:15:52.056Z,99267.88
2019-04-25T22:18:18.599Z,99256.98
2019-04-25T22:20:45.005Z,99262.36
2019-04-25T22:23:12.091Z,99260.09
2019-04-25T22:25:38.514Z,99257.57
2019-04-25T22:28:05.113Z,99253.20
2019-04-25T22:30:31.786Z,99259.05
2019-04-25T22:33:01.500Z,99253.86
2019-04-25T22:35:35.814Z,99252.54
2019-04-25T22:38:02.443Z,99252.25
2019-04-25T22:40:28.651Z,99247.86
2019-04-25T22:42:54.797Z,99252.95
2019-04-25T22:45:21.214Z,99245.44
2019-04-25T22:47:47.791Z,99240.39
2019-04-25T22:50:13.995Z,99239.39
2019-04-25T22:52:40.186Z,99238.48
2019-04-25T22:55:08.250Z,99240.84
2019-04-25T22:57:34.709Z,99237.06
2019-04-25T23:00:01.984Z,99234.92
2019-04-25T23:02:31.410Z,99236.58
2019-04-25T23:05:12.863Z,99232.23
2019-04-25T23:07:33.824Z,99230.70
2019-04-25T23:10:00.420Z,99233.33
2019-04-25T23:12:26.963Z,99230.42
2019-04-25T23:14:53.109Z,99229.68
2019-04-25T23:17:19.319Z,99224.81
2019-04-25T23:19:45.777Z,99226.78
2019-04-25T23:22:11.991Z,99225.25
2019-04-25T23:24:40.045Z,99220.58
2019-04-25T23:27:14.943Z,99229.01
2019-04-25T23:29:41.091Z,99215.39
2019-04-25T23:32:08.632Z,99217.92
2019-04-25T23:34:34.783Z,99209.47
2019-04-25T23:37:01.004Z,99205.81
2019-04-25T23:39:27.351Z,99203.33
2019-04-25T23:41:53.564Z,99198.03
2019-04-25T23:44:19.710Z,99192.50
2019-04-25T23:46:46.255Z,99188.05
2019-04-25T23:49:12.715Z,99189.34
2019-04-25T23:51:39.249Z,99188.67
2019-04-25T23:54:05.391Z,99182.14
2019-04-25T23:56:31.629Z,99170.92
2019-04-25T23:58:58.294Z,99176.57
